You are not logged in, Click here to log in
ICAO: TIST Country: 夏洛特阿馬利亞
Latitude: 18.3373 Longitude: -64.9734
Total Arrivals: 1 Total Departures: 3
Latest Arrival: MJ382 (TJSJ-TIST)Jason. Li Latest Departure: DL307 (TIST-KATL)Jason. Li
Scenery:
METAR : TIST 210753Z AUTO 06005KT 10SM CLR 27/23 A2999 RMK AO2 SLP157 T02720233 $

西瑞爾金恩機場 STT